createdAt,value
2022-11-20T00:00:41.147Z,0.06
2022-11-20T00:03:07.903Z,-0.01
2022-11-20T00:05:34.815Z,0.03
2022-11-20T00:08:01.645Z,0.08
2022-11-20T00:10:28.418Z,0.08
2022-11-20T00:12:55.198Z,0.03
2022-11-20T00:15:22.034Z,0.08
2022-11-20T00:17:48.787Z,0.09
2022-11-20T00:20:15.875Z,-0.06
2022-11-20T00:22:42.624Z,0.03
2022-11-20T00:25:09.634Z,0.08
2022-11-20T00:27:36.773Z,-0.13
2022-11-20T00:30:04.276Z,-0.02
2022-11-20T00:32:31.227Z,-0.03
2022-11-20T00:34:58.003Z,-0.05
2022-11-20T00:37:24.767Z,0.04
2022-11-20T00:39:51.547Z,-0.03
2022-11-20T00:42:18.294Z,0.01
2022-11-20T00:44:45.025Z,0.02
2022-11-20T00:47:11.831Z,-0.09
2022-11-20T00:49:38.574Z,0.03
2022-11-20T00:52:05.543Z,0.02
2022-11-20T00:54:32.266Z,0.01
2022-11-20T00:56:58.977Z,-0.07
2022-11-20T00:59:25.735Z,-0.02
2022-11-20T01:01:52.495Z,-0.07
2022-11-20T01:04:19.457Z,-0.11
2022-11-20T01:06:46.200Z,-0.04
2022-11-20T01:09:14.215Z,-0.03
2022-11-20T01:11:42.863Z,-0.11
2022-11-20T01:14:13.397Z,-0.31
2022-11-20T01:16:50.456Z,-0.04
2022-11-20T01:19:20.842Z,-0.08
2022-11-20T01:21:50.869Z,-0.10
2022-11-20T01:24:18.634Z,-0.02
2022-11-20T01:26:45.938Z,-0.02
2022-11-20T01:29:18.095Z,-0.01
2022-11-20T01:31:45.304Z,-0.10
2022-11-20T01:34:14.183Z,0.00
2022-11-20T01:36:41.139Z,-0.01
2022-11-20T01:39:15.973Z,0.01
2022-11-20T01:42:05.674Z,-0.04
2022-11-20T01:44:58.506Z,0.00
2022-11-20T01:47:35.204Z,-0.06
2022-11-20T01:50:04.445Z,0.01
2022-11-20T01:52:40.178Z,0.01
2022-11-20T01:55:10.145Z,0.01
2022-11-20T01:57:36.943Z,0.02
2022-11-20T02:00:11.399Z,0.00
2022-11-20T02:02:38.253Z,0.02
2022-11-20T02:05:26.913Z,-0.04
2022-11-20T02:07:53.864Z,0.01
2022-11-20T02:10:20.663Z,-0.11
2022-11-20T02:13:06.024Z,0.00
2022-11-20T02:15:34.071Z,-0.01
2022-11-20T02:18:00.895Z,-0.04
2022-11-20T02:20:27.660Z,-0.09
2022-11-20T02:23:17.683Z,-0.01
2022-11-20T02:25:44.542Z,0.01
2022-11-20T02:28:11.355Z,-0.03
2022-11-20T02:30:38.102Z,-0.01
2022-11-20T02:33:04.826Z,0.00
2022-11-20T02:35:31.834Z,-0.01
2022-11-20T02:38:00.403Z,-0.02
2022-11-20T02:40:27.163Z,-0.08
2022-11-20T02:42:54.606Z,-0.01
2022-11-20T02:45:21.453Z,-0.02
2022-11-20T02:47:48.184Z,-0.10
2022-11-20T02:50:14.996Z,-0.06
2022-11-20T02:52:41.725Z,-0.07
2022-11-20T02:55:08.583Z,-0.09
2022-11-20T02:57:35.527Z,-0.03
2022-11-20T03:00:02.354Z,-0.04
2022-11-20T03:02:32.526Z,-0.07
2022-11-20T03:04:59.414Z,-0.05
2022-11-20T03:07:26.523Z,-0.16
2022-11-20T03:09:53.343Z,-0.08
2022-11-20T03:12:20.063Z,-0.08
2022-11-20T03:14:52.651Z,-0.06
2022-11-20T03:17:19.938Z,-0.11
2022-11-20T03:19:46.694Z,-0.06
2022-11-20T03:22:13.462Z,-0.11
2022-11-20T03:24:40.174Z,-0.07
2022-11-20T03:27:06.907Z,-0.08
2022-11-20T03:29:33.653Z,-0.08
2022-11-20T03:32:00.434Z,-0.08
2022-11-20T03:34:27.204Z,-0.11
2022-11-20T03:36:53.944Z,-0.09
2022-11-20T03:39:21.047Z,-0.11
2022-11-20T03:41:48.084Z,-0.13
2022-11-20T03:44:14.814Z,-0.10
2022-11-20T03:46:41.536Z,-0.12
2022-11-20T03:49:08.323Z,-0.12
2022-11-20T03:51:36.210Z,-0.13
2022-11-20T03:54:05.187Z,-0.14
2022-11-20T03:56:33.556Z,-0.17
2022-11-20T03:59:00.334Z,-0.20
2022-11-20T04:01:31.392Z,-0.23
2022-11-20T04:03:58.244Z,-0.27
2022-11-20T04:06:27.033Z,-0.31
2022-11-20T04:08:56.105Z,-0.51
2022-11-20T04:11:24.780Z,-0.40
2022-11-20T04:13:53.086Z,-0.46
2022-11-20T04:16:20.284Z,-0.61
2022-11-20T04:18:47.109Z,-0.55
2022-11-20T04:21:13.974Z,-0.65
2022-11-20T04:23:40.753Z,-0.69
2022-11-20T04:26:11.978Z,-0.84
2022-11-20T04:28:40.173Z,-0.89
2022-11-20T04:31:08.336Z,-0.99
2022-11-20T04:33:35.356Z,-1.13
2022-11-20T04:36:06.564Z,-1.16
2022-11-20T04:38:33.355Z,-1.21
2022-11-20T04:41:01.150Z,-1.37
2022-11-20T04:43:28.054Z,-1.40
2022-11-20T04:45:55.295Z,-1.47
2022-11-20T04:48:22.366Z,-1.58
2022-11-20T04:50:49.114Z,-1.61
2022-11-20T04:53:15.955Z,-1.59
2022-11-20T04:55:42.735Z,-1.64
2022-11-20T04:58:09.513Z,-1.74
2022-11-20T05:00:36.284Z,-1.76
2022-11-20T05:03:03.025Z,-1.96
2022-11-20T05:05:29.733Z,-1.81
2022-11-20T05:07:59.692Z,-2.07
2022-11-20T05:10:27.168Z,-1.96
2022-11-20T05:12:53.938Z,-2.02
2022-11-20T05:15:20.754Z,-2.14
2022-11-20T05:17:51.248Z,-2.10
2022-11-20T05:20:18.424Z,-2.25
2022-11-20T05:22:45.255Z,-2.21
2022-11-20T05:25:12.174Z,-2.41
2022-11-20T05:27:38.909Z,-2.31
2022-11-20T05:30:06.233Z,-2.35
2022-11-20T05:32:32.987Z,-2.42
2022-11-20T05:34:59.736Z,-2.50
2022-11-20T05:37:26.524Z,-2.52
2022-11-20T05:39:53.527Z,-2.53
2022-11-20T05:42:39.085Z,-2.54
2022-11-20T05:45:06.993Z,-2.60
2022-11-20T05:47:34.528Z,-2.66
2022-11-20T05:50:01.272Z,-2.68
2022-11-20T05:52:31.203Z,-2.82
2022-11-20T05:54:58.055Z,-2.83
2022-11-20T05:57:24.787Z,-2.73
2022-11-20T05:59:51.582Z,-2.67
2022-11-20T06:02:18.489Z,-2.65
2022-11-20T06:04:45.275Z,-2.59
2022-11-20T06:07:12.076Z,-2.64
2022-11-20T06:09:38.863Z,-2.65
2022-11-20T06:12:06.136Z,-2.50
2022-11-20T06:14:32.884Z,-2.46
2022-11-20T06:16:59.725Z,-2.49
2022-11-20T06:19:26.524Z,-2.36
2022-11-20T06:21:53.281Z,-2.32
2022-11-20T06:24:20.096Z,-2.28
2022-11-20T06:26:46.908Z,-2.22
2022-11-20T06:29:13.691Z,-2.20
2022-11-20T06:31:40.516Z,-2.12
2022-11-20T06:34:07.632Z,-2.13
2022-11-20T06:36:34.496Z,-2.02
2022-11-20T06:39:01.683Z,-1.99
2022-11-20T06:41:29.066Z,-1.90
2022-11-20T06:43:55.862Z,-1.82
2022-11-20T06:46:22.739Z,-1.83
2022-11-20T06:48:49.818Z,-1.75
2022-11-20T06:51:16.716Z,-1.73
2022-11-20T06:53:43.474Z,-1.63
2022-11-20T06:56:10.267Z,-1.58
2022-11-20T06:58:37.784Z,-1.56
2022-11-20T07:01:09.187Z,-1.61
2022-11-20T07:03:36.023Z,-1.46
2022-11-20T07:06:03.175Z,-1.46
2022-11-20T07:08:30.103Z,-1.38
2022-11-20T07:11:00.642Z,-1.35
2022-11-20T07:13:28.285Z,-1.28
2022-11-20T07:15:55.116Z,-1.24
2022-11-20T07:18:22.066Z,-1.22
2022-11-20T07:20:48.834Z,-1.20
2022-11-20T07:23:15.574Z,-1.14
2022-11-20T07:25:42.323Z,-1.10
2022-11-20T07:28:09.359Z,-1.05
2022-11-20T07:30:36.123Z,-1.01
2022-11-20T07:33:02.870Z,-0.97
2022-11-20T07:35:29.595Z,-0.91
2022-11-20T07:37:56.331Z,-0.87
2022-11-20T07:40:23.119Z,-0.84
2022-11-20T07:42:51.135Z,-0.77
2022-11-20T07:45:18.886Z,-0.82
2022-11-20T07:47:45.623Z,-0.66
2022-11-20T07:50:12.751Z,-0.60
2022-11-20T07:52:39.554Z,-0.62
2022-11-20T07:55:07.026Z,-0.60
2022-11-20T07:57:33.816Z,-0.48
2022-11-20T08:00:00.625Z,-0.50
2022-11-20T08:02:27.367Z,-0.38
2022-11-20T08:04:54.146Z,-0.29
2022-11-20T08:07:20.890Z,-0.32
2022-11-20T08:09:47.678Z,-0.21
2022-11-20T08:12:39.833Z,-0.17
2022-11-20T08:15:12.593Z,-0.03
2022-11-20T08:17:40.094Z,0.16
2022-11-20T08:20:07.264Z,0.13
2022-11-20T08:22:34.017Z,0.19
2022-11-20T08:25:00.755Z,0.22
2022-11-20T08:27:27.519Z,0.20
2022-11-20T08:29:54.314Z,0.16
2022-11-20T08:32:21.077Z,0.25
2022-11-20T08:34:47.887Z,0.23
2022-11-20T08:37:14.662Z,0.18
2022-11-20T08:39:41.438Z,0.23
2022-11-20T08:42:09.258Z,0.16
2022-11-20T08:44:36.044Z,0.19
2022-11-20T08:47:02.799Z,0.19
2022-11-20T08:49:29.552Z,0.17
2022-11-20T08:51:56.482Z,0.18
2022-11-20T08:54:23.702Z,0.23
2022-11-20T08:56:50.474Z,0.27
2022-11-20T08:59:27.334Z,0.23
2022-11-20T09:02:03.915Z,0.30
2022-11-20T09:04:30.643Z,0.31
2022-11-20T09:06:57.484Z,0.23
2022-11-20T09:09:24.582Z,0.27
2022-11-20T09:11:51.656Z,0.31
2022-11-20T09:14:18.406Z,0.32
2022-11-20T09:16:46.700Z,0.26
2022-11-20T09:19:34.710Z,0.29
2022-11-20T09:22:01.128Z,0.31
2022-11-20T09:24:28.930Z,0.31
2022-11-20T09:26:55.741Z,0.32
2022-11-20T09:29:23.151Z,0.35
2022-11-20T09:31:50.227Z,0.34
2022-11-20T09:34:17.020Z,0.42
2022-11-20T09:36:43.757Z,0.48
2022-11-20T09:39:10.488Z,0.55
2022-11-20T09:42:23.737Z,0.64
2022-11-20T09:44:56.181Z,0.69
2022-11-20T09:47:37.743Z,0.72
2022-11-20T09:50:41.623Z,0.74
2022-11-20T09:53:45.885Z,0.77
2022-11-20T09:56:12.759Z,0.73
2022-11-20T09:58:43.990Z,0.76
2022-11-20T10:01:16.569Z,0.76
2022-11-20T10:04:16.177Z,0.83
2022-11-20T10:09:57.076Z,0.85
2022-11-20T10:13:01.105Z,0.91
2022-11-20T10:16:12.733Z,0.87
2022-11-20T10:18:57.774Z,0.93
2022-11-20T10:21:56.847Z,0.89
2022-11-20T10:24:47.097Z,0.88
2022-11-20T10:27:44.404Z,0.92
2022-11-20T10:30:15.874Z,0.94
2022-11-20T10:32:48.344Z,0.91
2022-11-20T10:35:14.996Z,0.95
2022-11-20T10:37:45.464Z,0.98
2022-11-20T10:40:33.633Z,1.09
2022-11-20T10:43:04.159Z,1.11
2022-11-20T10:45:58.777Z,1.10
2022-11-20T10:48:26.914Z,1.08
2022-11-20T10:50:56.654Z,1.14
2022-11-20T10:53:59.145Z,1.06
2022-11-20T10:56:59.707Z,1.09
2022-11-20T10:59:26.379Z,1.06
2022-11-20T11:01:53.235Z,1.04
2022-11-20T11:04:35.222Z,1.02
2022-11-20T11:07:26.632Z,1.02
2022-11-20T11:09:54.728Z,0.91
2022-11-20T11:12:22.937Z,1.05
2022-11-20T11:14:54.293Z,1.06
2022-11-20T11:17:28.371Z,1.05
2022-11-20T11:20:22.329Z,1.06
2022-11-20T11:22:51.105Z,1.03
2022-11-20T11:25:25.411Z,1.07
2022-11-20T11:27:52.578Z,1.08
2022-11-20T11:30:20.257Z,1.08
2022-11-20T11:32:47.509Z,1.14
2022-11-20T11:35:25.324Z,1.16
2022-11-20T11:37:52.461Z,1.17
2022-11-20T11:40:24.300Z,1.19
2022-11-20T11:43:03.774Z,1.09
2022-11-20T11:45:30.563Z,1.16
2022-11-20T11:47:58.985Z,1.10
2022-11-20T11:50:26.904Z,1.13
2022-11-20T11:53:10.565Z,1.09
2022-11-20T11:56:14.562Z,1.08
2022-11-20T11:58:48.061Z,1.07
2022-11-20T12:01:35.718Z,1.06
2022-11-20T12:04:14.568Z,1.06
2022-11-20T12:06:42.703Z,1.05
2022-11-20T12:09:12.835Z,1.09
2022-11-20T12:11:57.078Z,1.11
2022-11-20T12:14:30.367Z,1.10
2022-11-20T12:16:58.681Z,1.09
2022-11-20T12:19:25.804Z,1.08
2022-11-20T12:22:30.324Z,1.09
2022-11-20T12:24:56.996Z,1.07
2022-11-20T12:27:48.665Z,1.06
2022-11-20T12:30:16.373Z,1.04
2022-11-20T12:33:20.713Z,1.06
2022-11-20T12:36:08.125Z,1.04
2022-11-20T12:39:12.255Z,1.02
2022-11-20T12:42:34.891Z,1.01
2022-11-20T12:45:23.284Z,0.97
2022-11-20T12:48:08.430Z,0.95
2022-11-20T12:54:14.098Z,0.90
2022-11-20T12:56:40.806Z,0.88
2022-11-20T12:59:44.788Z,0.89
2022-11-20T13:02:46.017Z,0.89
2022-11-20T13:05:35.935Z,0.87
2022-11-20T13:08:02.669Z,0.83
2022-11-20T13:10:40.398Z,0.87
2022-11-20T13:13:16.230Z,0.85
2022-11-20T13:16:14.668Z,0.85
2022-11-20T13:18:43.539Z,0.84
2022-11-20T13:21:22.048Z,0.85
2022-11-20T13:23:48.806Z,0.81
2022-11-20T13:26:23.275Z,0.82
2022-11-20T13:29:03.064Z,0.75
2022-11-20T13:31:34.865Z,0.78
2022-11-20T13:34:02.978Z,0.71
2022-11-20T13:36:30.227Z,0.78
2022-11-20T13:38:57.440Z,0.71
2022-11-20T13:41:39.029Z,0.69
2022-11-20T13:44:16.634Z,0.75
2022-11-20T13:46:45.696Z,0.71
2022-11-20T13:49:33.646Z,0.71
2022-11-20T13:52:35.575Z,0.71
2022-11-20T13:55:23.766Z,0.69
2022-11-20T13:57:56.634Z,0.68
2022-11-20T14:00:24.548Z,0.64
2022-11-20T14:03:14.238Z,0.66
2022-11-20T14:05:42.190Z,0.64
2022-11-20T14:08:15.606Z,0.66
2022-11-20T14:10:42.327Z,0.65
2022-11-20T14:13:27.115Z,0.65
2022-11-20T14:15:58.096Z,0.64
2022-11-20T14:18:26.743Z,0.60
2022-11-20T14:20:53.593Z,0.64
2022-11-20T14:23:29.916Z,0.52
2022-11-20T14:25:57.228Z,0.62
2022-11-20T14:28:28.780Z,0.59
2022-11-20T14:30:56.272Z,0.60
2022-11-20T14:33:25.929Z,0.54
2022-11-20T14:35:56.747Z,0.57
2022-11-20T14:38:26.435Z,0.55
2022-11-20T14:40:53.297Z,0.54
2022-11-20T14:43:23.996Z,0.55
2022-11-20T14:46:01.626Z,0.55
2022-11-20T14:48:43.404Z,0.48
2022-11-20T14:51:11.986Z,0.51
2022-11-20T14:53:38.860Z,0.50
2022-11-20T14:56:05.752Z,0.47
2022-11-20T14:58:34.439Z,0.43
2022-11-20T15:01:06.266Z,0.45
2022-11-20T15:03:40.535Z,0.39
2022-11-20T15:06:08.908Z,0.44
2022-11-20T15:08:35.865Z,0.45
2022-11-20T15:11:02.669Z,0.33
2022-11-20T15:13:38.885Z,0.45
2022-11-20T15:16:15.036Z,0.45
2022-11-20T15:18:44.509Z,0.44
2022-11-20T15:21:14.677Z,0.39
2022-11-20T15:23:41.550Z,0.38
2022-11-20T15:26:09.149Z,0.38
2022-11-20T15:28:41.391Z,0.41
2022-11-20T15:31:08.245Z,0.41
2022-11-20T15:33:35.319Z,0.36
2022-11-20T15:36:02.092Z,0.43
2022-11-20T15:38:28.832Z,0.41
2022-11-20T15:40:55.595Z,0.41
2022-11-20T15:43:22.533Z,0.33
2022-11-20T15:45:51.160Z,0.40
2022-11-20T15:48:20.816Z,0.38
2022-11-20T15:51:12.247Z,0.37
2022-11-20T15:53:39.989Z,0.35
2022-11-20T15:56:07.017Z,0.38
2022-11-20T15:58:33.770Z,0.32
2022-11-20T16:01:00.636Z,0.31
2022-11-20T16:03:27.466Z,0.30
2022-11-20T16:05:54.282Z,0.28
2022-11-20T16:08:21.094Z,0.35
2022-11-20T16:10:47.862Z,0.34
2022-11-20T16:13:34.857Z,0.36
2022-11-20T16:16:06.110Z,0.30
2022-11-20T16:18:33.148Z,0.35
2022-11-20T16:20:59.948Z,0.28
2022-11-20T16:23:26.814Z,0.33
2022-11-20T16:25:53.603Z,0.35
2022-11-20T16:28:20.686Z,0.34
2022-11-20T16:30:47.544Z,0.31
2022-11-20T16:33:18.248Z,0.36
2022-11-20T16:35:45.057Z,0.32
2022-11-20T16:38:11.879Z,0.25
2022-11-20T16:40:38.646Z,0.26
2022-11-20T16:43:12.258Z,0.32
2022-11-20T16:45:44.413Z,0.29
2022-11-20T16:48:15.521Z,0.30
2022-11-20T16:50:52.857Z,0.32
2022-11-20T16:53:20.477Z,0.31
2022-11-20T16:55:47.347Z,0.29
2022-11-20T16:58:15.098Z,0.30
2022-11-20T17:00:45.595Z,0.30
2022-11-20T17:03:17.720Z,0.29
2022-11-20T17:05:44.490Z,0.27
2022-11-20T17:08:11.341Z,0.30
2022-11-20T17:10:38.144Z,0.30
2022-11-20T17:13:04.894Z,0.32
2022-11-20T17:15:31.771Z,0.30
2022-11-20T17:17:58.535Z,0.32
2022-11-20T17:20:25.321Z,0.33
2022-11-20T17:22:52.078Z,0.33
2022-11-20T17:25:18.986Z,0.33
2022-11-20T17:27:45.718Z,0.30
2022-11-20T17:30:12.608Z,0.33
2022-11-20T17:32:39.935Z,0.32
2022-11-20T17:35:06.958Z,0.32
2022-11-20T17:37:33.705Z,0.34
2022-11-20T17:40:00.440Z,0.26
2022-11-20T17:42:27.199Z,0.33
2022-11-20T17:44:53.946Z,0.33
2022-11-20T17:47:20.748Z,0.33
2022-11-20T17:49:47.485Z,0.28
2022-11-20T17:52:14.276Z,0.26
2022-11-20T17:54:40.986Z,0.34
2022-11-20T17:57:27.586Z,0.21
2022-11-20T17:59:54.435Z,0.34
2022-11-20T18:02:21.196Z,0.33
2022-11-20T18:04:47.927Z,0.30
2022-11-20T18:07:14.696Z,0.31
2022-11-20T18:09:41.475Z,0.31
2022-11-20T18:12:08.225Z,0.32
2022-11-20T18:14:36.696Z,0.32
2022-11-20T18:17:08.741Z,0.31
2022-11-20T18:20:01.001Z,0.26
2022-11-20T18:22:32.906Z,0.31
2022-11-20T18:24:59.738Z,0.27
2022-11-20T18:27:26.490Z,0.24
2022-11-20T18:29:53.563Z,0.28
2022-11-20T18:32:21.628Z,0.28
2022-11-20T18:34:48.581Z,0.20
2022-11-20T18:37:16.543Z,0.27
2022-11-20T18:39:43.694Z,0.17
2022-11-20T18:42:52.763Z,0.27
2022-11-20T18:45:19.536Z,0.25
2022-11-20T18:47:46.298Z,0.28
2022-11-20T18:50:13.045Z,0.28
2022-11-20T18:52:44.762Z,0.29
2022-11-20T18:55:12.748Z,0.29
2022-11-20T18:57:39.604Z,0.29
2022-11-20T19:00:09.563Z,0.27
2022-11-20T19:02:41.763Z,0.21
2022-11-20T19:05:13.305Z,0.28
2022-11-20T19:07:40.400Z,0.28
2022-11-20T19:10:07.432Z,0.16
2022-11-20T19:12:34.794Z,0.23
2022-11-20T19:15:01.531Z,0.20
2022-11-20T19:17:28.264Z,0.19
2022-11-20T19:19:55.267Z,0.20
2022-11-20T19:22:22.426Z,0.18
2022-11-20T19:24:49.512Z,0.13
2022-11-20T19:27:16.343Z,0.11
2022-11-20T19:29:43.183Z,-0.04
2022-11-20T19:32:09.950Z,0.07
2022-11-20T19:34:36.946Z,0.05
2022-11-20T19:37:03.794Z,0.05
2022-11-20T19:39:30.650Z,0.05
2022-11-20T19:41:57.410Z,0.04
2022-11-20T19:44:24.210Z,0.05
2022-11-20T19:46:51.087Z,0.05
2022-11-20T19:49:17.854Z,0.07
2022-11-20T19:51:48.432Z,0.07
2022-11-20T19:54:15.337Z,0.05
2022-11-20T19:56:42.158Z,0.07
2022-11-20T19:59:08.914Z,0.04
2022-11-20T20:01:35.758Z,0.09
2022-11-20T20:04:05.225Z,0.06
2022-11-20T20:06:32.975Z,0.11
2022-11-20T20:09:01.657Z,0.12
2022-11-20T20:11:30.122Z,0.13
2022-11-20T20:13:59.133Z,0.14
2022-11-20T20:16:26.447Z,0.10
2022-11-20T20:19:01.595Z,0.13
2022-11-20T20:21:30.449Z,0.06
2022-11-20T20:23:57.686Z,0.09
2022-11-20T20:26:24.613Z,0.18
2022-11-20T20:28:51.481Z,0.16
2022-11-20T20:31:20.056Z,0.18
2022-11-20T20:33:46.867Z,0.21
2022-11-20T20:36:15.196Z,0.20
2022-11-20T20:38:42.485Z,0.12
2022-11-20T20:41:09.340Z,0.21
2022-11-20T20:43:56.751Z,0.22
2022-11-20T20:46:24.038Z,0.15
2022-11-20T20:48:54.337Z,0.18
2022-11-20T20:51:22.187Z,0.18
2022-11-20T20:53:49.057Z,0.20
2022-11-20T20:56:15.925Z,0.18
2022-11-20T20:58:42.713Z,0.20
2022-11-20T21:01:12.121Z,0.27
2022-11-20T21:03:39.213Z,0.21
2022-11-20T21:06:08.207Z,0.22
2022-11-20T21:08:39.110Z,0.18
2022-11-20T21:11:08.954Z,0.28
2022-11-20T21:13:36.253Z,0.26
2022-11-20T21:16:03.087Z,0.27
2022-11-20T21:18:29.895Z,0.28
2022-11-20T21:21:15.093Z,0.28
2022-11-20T21:23:44.625Z,0.21
2022-11-20T21:26:11.414Z,0.27
2022-11-20T21:28:38.188Z,0.28
2022-11-20T21:31:08.608Z,0.28
2022-11-20T21:33:42.963Z,0.28
2022-11-20T21:36:11.233Z,0.25
2022-11-20T21:38:38.017Z,0.28
2022-11-20T21:41:05.353Z,0.29
2022-11-20T21:43:32.234Z,0.20
2022-11-20T21:46:02.804Z,0.27
2022-11-20T21:48:33.796Z,0.27
2022-11-20T21:51:08.044Z,0.29
2022-11-20T21:53:34.913Z,0.23
2022-11-20T21:56:02.114Z,0.25
2022-11-20T21:58:28.909Z,0.26
2022-11-20T22:00:55.688Z,0.23
2022-11-20T22:03:22.804Z,0.22
2022-11-20T22:05:58.876Z,0.23
2022-11-20T22:08:26.448Z,0.22
2022-11-20T22:10:57.315Z,0.20
2022-11-20T22:13:43.275Z,0.20
2022-11-20T22:16:10.163Z,0.19
2022-11-20T22:18:37.038Z,0.13
2022-11-20T22:21:09.497Z,0.13
2022-11-20T22:23:36.389Z,0.15
2022-11-20T22:26:22.304Z,0.12
2022-11-20T22:28:50.076Z,0.14
2022-11-20T22:31:17.056Z,0.10
2022-11-20T22:33:43.885Z,0.15
2022-11-20T22:36:11.308Z,0.14
2022-11-20T22:38:39.663Z,0.12
2022-11-20T22:41:14.120Z,0.17
2022-11-20T22:43:41.554Z,0.13
2022-11-20T22:46:15.524Z,0.15
2022-11-20T22:49:05.976Z,0.15
2022-11-20T22:51:34.335Z,0.17
2022-11-20T22:54:01.341Z,0.16
2022-11-20T22:56:28.095Z,0.16
2022-11-20T22:58:55.174Z,0.17
2022-11-20T23:01:29.777Z,0.18
2022-11-20T23:03:58.115Z,0.19
2022-11-20T23:06:25.046Z,0.19
2022-11-20T23:08:51.906Z,0.20
2022-11-20T23:11:29.066Z,0.20
2022-11-20T23:14:01.258Z,0.05
2022-11-20T23:16:29.288Z,0.18
2022-11-20T23:18:57.184Z,0.19
2022-11-20T23:21:24.081Z,0.16
2022-11-20T23:23:51.895Z,0.18
2022-11-20T23:26:19.835Z,0.13
2022-11-20T23:28:46.699Z,0.16
2022-11-20T23:31:13.915Z,0.11
2022-11-20T23:33:41.784Z,0.16
2022-11-20T23:36:08.845Z,0.13
2022-11-20T23:38:35.616Z,0.13
2022-11-20T23:41:02.610Z,0.13
2022-11-20T23:43:29.455Z,0.13
2022-11-20T23:45:57.552Z,0.12
2022-11-20T23:48:29.035Z,0.13
2022-11-20T23:50:55.849Z,0.13
2022-11-20T23:53:22.745Z,0.06
2022-11-20T23:55:56.989Z,0.14
2022-11-20T23:58:24.877Z,0.07
